Terminal Aerodrome Forecast
Issued by NWS

Home | Current Version | Previous Version | Text Only | Print | Product List | Glossary On
Versions: 1 2 3 4 5 6 7 8 9 10 11 12 13
000
FTUS45 KGGW 031100
TAFSDY
TAF
KSDY 031126Z 0312/0412 31014KT P6SM SCT022
     FM031800 30023G32KT P6SM BKN035
     FM040300 30016KT P6SM BKN045
      AMD LTD TO CLD VIS AND WIND=

USA.gov is the U.S. government's official web portal to all federal, state and local government web resources and services.